sensor_id;sensor_type;location;lat;lon;timestamp;P1;durP1;ratioP1;P2;durP2;ratioP2
80193;SDS011;69515;42.072;21.504;2024-02-21T00:03:18;9.00;;;5.72;;
80193;SDS011;69515;42.072;21.504;2024-02-21T00:05:45;10.52;;;5.90;;
80193;SDS011;69515;42.072;21.504;2024-02-21T00:08:11;9.60;;;5.80;;
80193;SDS011;69515;42.072;21.504;2024-02-21T00:10:37;9.98;;;5.70;;
80193;SDS011;69515;42.072;21.504;2024-02-21T00:15:30;10.82;;;5.38;;
80193;SDS011;69515;42.072;21.504;2024-02-21T00:20:22;10.10;;;6.00;;
80193;SDS011;69515;42.072;21.504;2024-02-21T00:25:17;10.20;;;6.38;;
80193;SDS011;69515;42.072;21.504;2024-02-21T00:27:43;8.88;;;4.80;;
80193;SDS011;69515;42.072;21.504;2024-02-21T00:32:35;8.77;;;5.43;;
80193;SDS011;69515;42.072;21.504;2024-02-21T00:37:27;9.45;;;5.95;;
80193;SDS011;69515;42.072;21.504;2024-02-21T00:42:19;10.50;;;5.38;;
80193;SDS011;69515;42.072;21.504;2024-02-21T00:44:46;10.05;;;5.72;;
80193;SDS011;69515;42.072;21.504;2024-02-21T00:47:12;9.05;;;5.15;;
80193;SDS011;69515;42.072;21.504;2024-02-21T00:52:04;9.50;;;5.93;;
80193;SDS011;69515;42.072;21.504;2024-02-21T00:54:31;7.93;;;5.22;;
80193;SDS011;69515;42.072;21.504;2024-02-21T00:59:23;9.60;;;5.03;;
80193;SDS011;69515;42.072;21.504;2024-02-21T01:01:49;9.82;;;6.20;;
80193;SDS011;69515;42.072;21.504;2024-02-21T01:04:15;10.38;;;5.78;;
80193;SDS011;69515;42.072;21.504;2024-02-21T01:06:41;9.95;;;5.88;;
80193;SDS011;69515;42.072;21.504;2024-02-21T01:09:09;8.95;;;4.97;;
80193;SDS011;69515;42.072;21.504;2024-02-21T01:11:35;10.05;;;5.80;;
80193;SDS011;69515;42.072;21.504;2024-02-21T01:16:27;12.00;;;5.97;;
80193;SDS011;69515;42.072;21.504;2024-02-21T01:18:54;10.18;;;5.90;;
80193;SDS011;69515;42.072;21.504;2024-02-21T01:21:20;9.23;;;5.45;;
80193;SDS011;69515;42.072;21.504;2024-02-21T01:26:12;11.32;;;6.05;;
80193;SDS011;69515;42.072;21.504;2024-02-21T01:28:40;10.45;;;5.70;;
80193;SDS011;69515;42.072;21.504;2024-02-21T01:31:07;8.88;;;5.03;;
80193;SDS011;69515;42.072;21.504;2024-02-21T01:33:33;8.73;;;5.30;;
80193;SDS011;69515;42.072;21.504;2024-02-21T01:36:03;8.65;;;4.70;;
80193;SDS011;69515;42.072;21.504;2024-02-21T01:38:31;8.88;;;4.70;;
80193;SDS011;69515;42.072;21.504;2024-02-21T01:40:58;9.77;;;4.88;;
80193;SDS011;69515;42.072;21.504;2024-02-21T01:43:24;9.73;;;5.15;;
80193;SDS011;69515;42.072;21.504;2024-02-21T01:45:52;7.53;;;4.82;;
80193;SDS011;69515;42.072;21.504;2024-02-21T01:48:19;8.05;;;4.50;;
80193;SDS011;69515;42.072;21.504;2024-02-21T01:50:45;7.85;;;4.75;;
80193;SDS011;69515;42.072;21.504;2024-02-21T01:53:15;8.50;;;4.75;;
80193;SDS011;69515;42.072;21.504;2024-02-21T01:55:46;7.47;;;4.82;;
80193;SDS011;69515;42.072;21.504;2024-02-21T01:58:16;7.78;;;4.72;;
80193;SDS011;69515;42.072;21.504;2024-02-21T02:00:42;9.43;;;4.72;;
80193;SDS011;69515;42.072;21.504;2024-02-21T02:03:12;8.50;;;5.05;;
80193;SDS011;69515;42.072;21.504;2024-02-21T02:08:07;8.60;;;5.20;;
80193;SDS011;69515;42.072;21.504;2024-02-21T02:10:34;7.65;;;4.60;;
80193;SDS011;69515;42.072;21.504;2024-02-21T02:13:00;7.50;;;4.68;;
80193;SDS011;69515;42.072;21.504;2024-02-21T02:15:26;7.15;;;4.18;;
80193;SDS011;69515;42.072;21.504;2024-02-21T02:17:52;8.48;;;4.38;;
80193;SDS011;69515;42.072;21.504;2024-02-21T02:22:44;8.35;;;4.53;;
80193;SDS011;69515;42.072;21.504;2024-02-21T02:25:12;7.95;;;4.57;;
80193;SDS011;69515;42.072;21.504;2024-02-21T02:27:42;6.57;;;3.60;;
80193;SDS011;69515;42.072;21.504;2024-02-21T02:30:10;7.00;;;3.92;;
80193;SDS011;69515;42.072;21.504;2024-02-21T02:32:36;6.60;;;4.03;;
80193;SDS011;69515;42.072;21.504;2024-02-21T02:35:02;6.05;;;4.03;;
80193;SDS011;69515;42.072;21.504;2024-02-21T02:37:29;7.97;;;4.53;;
80193;SDS011;69515;42.072;21.504;2024-02-21T02:39:55;7.90;;;4.15;;
80193;SDS011;69515;42.072;21.504;2024-02-21T02:42:21;9.13;;;4.20;;
80193;SDS011;69515;42.072;21.504;2024-02-21T02:44:48;7.53;;;4.28;;
80193;SDS011;69515;42.072;21.504;2024-02-21T02:47:14;9.15;;;4.50;;
80193;SDS011;69515;42.072;21.504;2024-02-21T02:49:40;6.97;;;4.50;;
80193;SDS011;69515;42.072;21.504;2024-02-21T02:52:06;7.00;;;4.05;;
80193;SDS011;69515;42.072;21.504;2024-02-21T02:54:33;7.97;;;4.00;;
80193;SDS011;69515;42.072;21.504;2024-02-21T02:56:59;8.15;;;4.07;;
80193;SDS011;69515;42.072;21.504;2024-02-21T02:59:25;8.93;;;4.28;;
80193;SDS011;69515;42.072;21.504;2024-02-21T03:01:51;7.75;;;3.90;;
80193;SDS011;69515;42.072;21.504;2024-02-21T03:04:18;6.28;;;3.88;;
80193;SDS011;69515;42.072;21.504;2024-02-21T03:06:44;6.22;;;3.83;;
80193;SDS011;69515;42.072;21.504;2024-02-21T03:09:10;7.30;;;4.10;;
80193;SDS011;69515;42.072;21.504;2024-02-21T03:11:37;6.20;;;3.70;;
80193;SDS011;69515;42.072;21.504;2024-02-21T03:14:05;7.00;;;4.03;;
80193;SDS011;69515;42.072;21.504;2024-02-21T03:16:32;5.85;;;3.55;;
80193;SDS011;69515;42.072;21.504;2024-02-21T03:18:58;7.45;;;4.22;;
80193;SDS011;69515;42.072;21.504;2024-02-21T03:21:24;6.20;;;3.50;;
80193;SDS011;69515;42.072;21.504;2024-02-21T03:26:16;6.82;;;3.80;;
80193;SDS011;69515;42.072;21.504;2024-02-21T03:28:43;6.38;;;3.47;;
80193;SDS011;69515;42.072;21.504;2024-02-21T03:31:13;6.07;;;3.40;;
80193;SDS011;69515;42.072;21.504;2024-02-21T03:33:40;7.22;;;3.60;;
80193;SDS011;69515;42.072;21.504;2024-02-21T03:36:07;5.32;;;3.30;;
80193;SDS011;69515;42.072;21.504;2024-02-21T03:38:38;6.85;;;3.40;;
80193;SDS011;69515;42.072;21.504;2024-02-21T03:43:31;6.93;;;3.40;;
80193;SDS011;69515;42.072;21.504;2024-02-21T03:45:57;6.47;;;3.38;;
80193;SDS011;69515;42.072;21.504;2024-02-21T03:48:23;5.60;;;2.85;;
80193;SDS011;69515;42.072;21.504;2024-02-21T03:50:49;6.85;;;3.30;;
80193;SDS011;69515;42.072;21.504;2024-02-21T03:55:42;5.78;;;3.33;;
80193;SDS011;69515;42.072;21.504;2024-02-21T03:58:08;6.28;;;2.88;;
80193;SDS011;69515;42.072;21.504;2024-02-21T04:00:34;8.90;;;3.70;;
80193;SDS011;69515;42.072;21.504;2024-02-21T04:05:27;6.55;;;3.22;;
80193;SDS011;69515;42.072;21.504;2024-02-21T04:07:54;6.40;;;3.58;;
80193;SDS011;69515;42.072;21.504;2024-02-21T04:12:46;6.53;;;3.63;;
80193;SDS011;69515;42.072;21.504;2024-02-21T04:15:15;7.35;;;3.28;;
80193;SDS011;69515;42.072;21.504;2024-02-21T04:17:42;6.30;;;3.72;;
80193;SDS011;69515;42.072;21.504;2024-02-21T04:22:36;6.80;;;3.67;;
80193;SDS011;69515;42.072;21.504;2024-02-21T04:25:02;6.20;;;3.72;;
80193;SDS011;69515;42.072;21.504;2024-02-21T04:27:28;5.82;;;3.40;;
80193;SDS011;69515;42.072;21.504;2024-02-21T04:29:55;7.18;;;3.42;;
80193;SDS011;69515;42.072;21.504;2024-02-21T04:32:21;6.13;;;3.25;;
80193;SDS011;69515;42.072;21.504;2024-02-21T04:34:47;5.85;;;3.10;;
80193;SDS011;69515;42.072;21.504;2024-02-21T04:37:14;7.55;;;3.28;;
80193;SDS011;69515;42.072;21.504;2024-02-21T04:39:40;6.18;;;3.60;;
80193;SDS011;69515;42.072;21.504;2024-02-21T04:44:32;9.27;;;4.15;;
80193;SDS011;69515;42.072;21.504;2024-02-21T04:46:58;8.23;;;4.05;;
80193;SDS011;69515;42.072;21.504;2024-02-21T04:49:24;5.93;;;3.65;;
80193;SDS011;69515;42.072;21.504;2024-02-21T04:51:51;7.88;;;4.43;;
80193;SDS011;69515;42.072;21.504;2024-02-21T04:54:17;8.48;;;4.03;;
80193;SDS011;69515;42.072;21.504;2024-02-21T04:56:43;7.90;;;4.45;;
80193;SDS011;69515;42.072;21.504;2024-02-21T04:59:09;5.78;;;3.72;;
80193;SDS011;69515;42.072;21.504;2024-02-21T05:01:36;7.63;;;4.07;;
80193;SDS011;69515;42.072;21.504;2024-02-21T05:04:02;7.35;;;3.83;;
80193;SDS011;69515;42.072;21.504;2024-02-21T05:06:28;8.25;;;3.78;;
80193;SDS011;69515;42.072;21.504;2024-02-21T05:08:55;7.47;;;4.18;;
80193;SDS011;69515;42.072;21.504;2024-02-21T05:11:23;7.50;;;3.97;;
80193;SDS011;69515;42.072;21.504;2024-02-21T05:13:49;8.05;;;4.05;;
80193;SDS011;69515;42.072;21.504;2024-02-21T05:16:16;8.40;;;5.00;;
80193;SDS011;69515;42.072;21.504;2024-02-21T05:18:42;6.63;;;3.85;;
80193;SDS011;69515;42.072;21.504;2024-02-21T05:23:34;6.85;;;3.85;;
80193;SDS011;69515;42.072;21.504;2024-02-21T05:26:00;6.65;;;4.10;;
80193;SDS011;69515;42.072;21.504;2024-02-21T05:28:27;6.75;;;3.95;;
80193;SDS011;69515;42.072;21.504;2024-02-21T05:30:53;8.73;;;4.35;;
80193;SDS011;69515;42.072;21.504;2024-02-21T05:33:19;6.47;;;3.95;;
80193;SDS011;69515;42.072;21.504;2024-02-21T05:35:49;6.70;;;3.38;;
80193;SDS011;69515;42.072;21.504;2024-02-21T05:38:15;7.40;;;4.22;;
80193;SDS011;69515;42.072;21.504;2024-02-21T05:40:41;6.78;;;3.85;;
80193;SDS011;69515;42.072;21.504;2024-02-21T05:43:08;6.65;;;3.40;;
80193;SDS011;69515;42.072;21.504;2024-02-21T05:45:34;7.45;;;3.53;;
80193;SDS011;69515;42.072;21.504;2024-02-21T05:48:01;5.78;;;3.30;;
80193;SDS011;69515;42.072;21.504;2024-02-21T05:50:27;5.70;;;3.13;;
80193;SDS011;69515;42.072;21.504;2024-02-21T05:52:54;5.82;;;3.38;;
80193;SDS011;69515;42.072;21.504;2024-02-21T05:55:23;7.40;;;3.83;;
80193;SDS011;69515;42.072;21.504;2024-02-21T05:57:49;6.07;;;3.80;;
80193;SDS011;69515;42.072;21.504;2024-02-21T06:00:15;6.40;;;3.42;;
80193;SDS011;69515;42.072;21.504;2024-02-21T06:02:42;6.55;;;3.60;;
80193;SDS011;69515;42.072;21.504;2024-02-21T06:05:08;7.07;;;3.53;;
80193;SDS011;69515;42.072;21.504;2024-02-21T06:10:01;8.13;;;3.28;;
80193;SDS011;69515;42.072;21.504;2024-02-21T06:12:27;6.10;;;3.50;;
80193;SDS011;69515;42.072;21.504;2024-02-21T06:14:54;6.50;;;3.70;;
80193;SDS011;69515;42.072;21.504;2024-02-21T06:17:20;6.40;;;3.80;;
80193;SDS011;69515;42.072;21.504;2024-02-21T06:19:46;6.05;;;3.35;;
80193;SDS011;69515;42.072;21.504;2024-02-21T06:22:12;7.25;;;3.85;;
80193;SDS011;69515;42.072;21.504;2024-02-21T06:24:38;6.82;;;3.63;;
80193;SDS011;69515;42.072;21.504;2024-02-21T06:27:05;7.18;;;3.60;;
80193;SDS011;69515;42.072;21.504;2024-02-21T06:29:32;6.97;;;3.90;;
80193;SDS011;69515;42.072;21.504;2024-02-21T06:31:58;7.22;;;3.67;;
80193;SDS011;69515;42.072;21.504;2024-02-21T06:36:53;7.13;;;4.10;;
80193;SDS011;69515;42.072;21.504;2024-02-21T06:39:23;10.32;;;5.50;;
80193;SDS011;69515;42.072;21.504;2024-02-21T06:41:49;6.35;;;3.58;;
80193;SDS011;69515;42.072;21.504;2024-02-21T06:44:16;6.47;;;3.63;;
80193;SDS011;69515;42.072;21.504;2024-02-21T06:46:42;7.03;;;4.10;;
80193;SDS011;69515;42.072;21.504;2024-02-21T06:51:41;12.20;;;7.47;;
80193;SDS011;69515;42.072;21.504;2024-02-21T06:54:07;15.25;;;7.25;;
80193;SDS011;69515;42.072;21.504;2024-02-21T06:56:35;14.45;;;7.28;;
80193;SDS011;69515;42.072;21.504;2024-02-21T06:59:03;18.13;;;8.13;;
80193;SDS011;69515;42.072;21.504;2024-02-21T07:01:29;13.38;;;8.30;;
80193;SDS011;69515;42.072;21.504;2024-02-21T07:03:56;21.73;;;9.15;;
80193;SDS011;69515;42.072;21.504;2024-02-21T07:06:22;14.35;;;8.75;;
80193;SDS011;69515;42.072;21.504;2024-02-21T07:08:49;18.05;;;9.60;;
80193;SDS011;69515;42.072;21.504;2024-02-21T07:11:36;21.38;;;9.40;;
80193;SDS011;69515;42.072;21.504;2024-02-21T07:14:03;27.63;;;13.93;;
80193;SDS011;69515;42.072;21.504;2024-02-21T07:16:29;27.17;;;10.35;;
80193;SDS011;69515;42.072;21.504;2024-02-21T07:19:03;26.25;;;11.70;;
80193;SDS011;69515;42.072;21.504;2024-02-21T07:21:29;25.23;;;9.63;;
80193;SDS011;69515;42.072;21.504;2024-02-21T07:23:58;12.43;;;7.25;;
80193;SDS011;69515;42.072;21.504;2024-02-21T07:26:24;10.95;;;6.00;;
80193;SDS011;69515;42.072;21.504;2024-02-21T07:28:52;9.18;;;5.55;;
80193;SDS011;69515;42.072;21.504;2024-02-21T07:31:19;11.18;;;6.03;;
80193;SDS011;69515;42.072;21.504;2024-02-21T07:33:45;10.35;;;5.55;;
80193;SDS011;69515;42.072;21.504;2024-02-21T07:36:14;17.10;;;7.00;;
80193;SDS011;69515;42.072;21.504;2024-02-21T07:38:46;10.52;;;6.40;;
80193;SDS011;69515;42.072;21.504;2024-02-21T07:41:33;8.52;;;5.45;;
80193;SDS011;69515;42.072;21.504;2024-02-21T07:43:59;9.45;;;4.82;;
80193;SDS011;69515;42.072;21.504;2024-02-21T07:46:26;9.52;;;5.53;;
80193;SDS011;69515;42.072;21.504;2024-02-21T07:48:52;9.38;;;5.55;;
80193;SDS011;69515;42.072;21.504;2024-02-21T07:51:19;15.82;;;6.40;;
80193;SDS011;69515;42.072;21.504;2024-02-21T07:53:45;10.07;;;5.75;;
80193;SDS011;69515;42.072;21.504;2024-02-21T07:56:13;9.55;;;6.00;;
80193;SDS011;69515;42.072;21.504;2024-02-21T07:58:40;9.45;;;6.13;;
80193;SDS011;69515;42.072;21.504;2024-02-21T08:01:07;14.10;;;6.60;;
80193;SDS011;69515;42.072;21.504;2024-02-21T08:03:34;10.85;;;6.82;;
80193;SDS011;69515;42.072;21.504;2024-02-21T08:06:20;14.30;;;9.23;;
80193;SDS011;69515;42.072;21.504;2024-02-21T08:08:46;13.18;;;7.28;;
80193;SDS011;69515;42.072;21.504;2024-02-21T08:11:13;11.23;;;7.05;;
80193;SDS011;69515;42.072;21.504;2024-02-21T08:13:41;11.35;;;7.45;;
80193;SDS011;69515;42.072;21.504;2024-02-21T08:16:28;26.55;;;16.13;;
80193;SDS011;69515;42.072;21.504;2024-02-21T08:18:55;16.15;;;11.38;;
80193;SDS011;69515;42.072;21.504;2024-02-21T08:21:21;11.18;;;6.72;;
80193;SDS011;69515;42.072;21.504;2024-02-21T08:23:53;10.82;;;7.00;;
80193;SDS011;69515;42.072;21.504;2024-02-21T08:26:21;12.05;;;7.57;;
80193;SDS011;69515;42.072;21.504;2024-02-21T08:31:50;11.07;;;7.07;;
80193;SDS011;69515;42.072;21.504;2024-02-21T08:34:17;11.45;;;7.65;;
80193;SDS011;69515;42.072;21.504;2024-02-21T08:36:44;11.48;;;7.55;;
80193;SDS011;69515;42.072;21.504;2024-02-21T08:39:10;10.23;;;7.30;;
80193;SDS011;69515;42.072;21.504;2024-02-21T08:41:36;10.75;;;7.53;;
80193;SDS011;69515;42.072;21.504;2024-02-21T08:44:03;12.63;;;7.78;;
80193;SDS011;69515;42.072;21.504;2024-02-21T08:46:30;11.80;;;7.30;;
80193;SDS011;69515;42.072;21.504;2024-02-21T08:48:56;9.98;;;6.63;;
80193;SDS011;69515;42.072;21.504;2024-02-21T08:51:24;11.82;;;7.45;;
80193;SDS011;69515;42.072;21.504;2024-02-21T08:53:51;11.02;;;7.07;;
80193;SDS011;69515;42.072;21.504;2024-02-21T08:59:28;9.43;;;6.30;;
80193;SDS011;69515;42.072;21.504;2024-02-21T09:01:54;10.95;;;6.40;;
80193;SDS011;69515;42.072;21.504;2024-02-21T09:04:21;8.65;;;5.50;;
80193;SDS011;69515;42.072;21.504;2024-02-21T09:06:47;10.70;;;6.22;;
80193;SDS011;69515;42.072;21.504;2024-02-21T09:09:13;9.07;;;5.35;;
80193;SDS011;69515;42.072;21.504;2024-02-21T09:11:43;9.32;;;5.32;;
80193;SDS011;69515;42.072;21.504;2024-02-21T09:17:16;9.20;;;5.60;;
80193;SDS011;69515;42.072;21.504;2024-02-21T09:19:46;8.85;;;5.70;;
80193;SDS011;69515;42.072;21.504;2024-02-21T09:22:14;10.02;;;6.07;;
80193;SDS011;69515;42.072;21.504;2024-02-21T09:24:41;9.82;;;5.90;;
80193;SDS011;69515;42.072;21.504;2024-02-21T09:27:07;9.18;;;5.80;;
80193;SDS011;69515;42.072;21.504;2024-02-21T09:29:34;11.32;;;6.55;;
80193;SDS011;69515;42.072;21.504;2024-02-21T09:32:01;10.57;;;5.68;;
80193;SDS011;69515;42.072;21.504;2024-02-21T09:34:31;10.15;;;5.53;;
80193;SDS011;69515;42.072;21.504;2024-02-21T09:36:57;7.82;;;5.25;;
80193;SDS011;69515;42.072;21.504;2024-02-21T09:39:26;7.55;;;5.07;;
80193;SDS011;69515;42.072;21.504;2024-02-21T09:41:54;8.55;;;4.50;;
80193;SDS011;69515;42.072;21.504;2024-02-21T09:44:23;7.18;;;4.90;;
80193;SDS011;69515;42.072;21.504;2024-02-21T09:46:57;7.50;;;4.97;;
80193;SDS011;69515;42.072;21.504;2024-02-21T09:49:31;8.15;;;4.32;;
80193;SDS011;69515;42.072;21.504;2024-02-21T09:51:58;6.63;;;3.42;;
80193;SDS011;69515;42.072;21.504;2024-02-21T09:54:28;7.22;;;3.28;;
80193;SDS011;69515;42.072;21.504;2024-02-21T09:56:57;8.48;;;3.65;;
80193;SDS011;69515;42.072;21.504;2024-02-21T09:59:24;9.32;;;4.10;;
80193;SDS011;69515;42.072;21.504;2024-02-21T10:01:51;10.45;;;4.30;;
80193;SDS011;69515;42.072;21.504;2024-02-21T10:04:17;7.28;;;3.83;;
80193;SDS011;69515;42.072;21.504;2024-02-21T10:06:44;7.40;;;3.92;;
80193;SDS011;69515;42.072;21.504;2024-02-21T10:09:19;6.63;;;4.03;;
80193;SDS011;69515;42.072;21.504;2024-02-21T10:11:49;6.80;;;3.88;;
80193;SDS011;69515;42.072;21.504;2024-02-21T10:14:16;6.57;;;3.88;;
80193;SDS011;69515;42.072;21.504;2024-02-21T10:16:43;7.70;;;4.10;;
80193;SDS011;69515;42.072;21.504;2024-02-21T10:19:29;6.47;;;3.78;;
80193;SDS011;69515;42.072;21.504;2024-02-21T10:22:03;7.00;;;3.72;;
80193;SDS011;69515;42.072;21.504;2024-02-21T10:24:30;7.15;;;4.00;;
80193;SDS011;69515;42.072;21.504;2024-02-21T10:27:01;9.73;;;3.95;;
80193;SDS011;69515;42.072;21.504;2024-02-21T10:29:29;9.13;;;4.30;;
80193;SDS011;69515;42.072;21.504;2024-02-21T10:32:09;12.45;;;4.60;;
80193;SDS011;69515;42.072;21.504;2024-02-21T10:34:36;9.05;;;4.15;;
80193;SDS011;69515;42.072;21.504;2024-02-21T10:37:03;6.93;;;3.90;;
80193;SDS011;69515;42.072;21.504;2024-02-21T10:39:37;8.68;;;4.07;;
80193;SDS011;69515;42.072;21.504;2024-02-21T10:42:05;11.80;;;5.20;;
80193;SDS011;69515;42.072;21.504;2024-02-21T10:44:32;7.75;;;3.90;;
80193;SDS011;69515;42.072;21.504;2024-02-21T10:46:58;8.27;;;3.90;;
80193;SDS011;69515;42.072;21.504;2024-02-21T10:49:25;8.25;;;3.97;;
80193;SDS011;69515;42.072;21.504;2024-02-21T10:52:06;9.32;;;4.18;;
80193;SDS011;69515;42.072;21.504;2024-02-21T10:57:19;8.10;;;4.72;;
80193;SDS011;69515;42.072;21.504;2024-02-21T10:59:51;8.75;;;4.03;;
80193;SDS011;69515;42.072;21.504;2024-02-21T11:02:19;8.80;;;3.30;;
80193;SDS011;69515;42.072;21.504;2024-02-21T11:04:46;7.05;;;3.35;;
80193;SDS011;69515;42.072;21.504;2024-02-21T11:07:14;6.72;;;3.67;;
80193;SDS011;69515;42.072;21.504;2024-02-21T11:09:50;9.73;;;3.88;;
80193;SDS011;69515;42.072;21.504;2024-02-21T11:12:19;7.53;;;3.03;;
80193;SDS011;69515;42.072;21.504;2024-02-21T11:17:55;7.22;;;3.50;;
80193;SDS011;69515;42.072;21.504;2024-02-21T11:23:10;17.15;;;4.30;;
80193;SDS011;69515;42.072;21.504;2024-02-21T11:25:48;11.45;;;4.20;;
80193;SDS011;69515;42.072;21.504;2024-02-21T11:28:25;5.47;;;3.00;;
80193;SDS011;69515;42.072;21.504;2024-02-21T11:30:51;8.98;;;3.92;;
80193;SDS011;69515;42.072;21.504;2024-02-21T11:33:41;8.85;;;3.42;;
80193;SDS011;69515;42.072;21.504;2024-02-21T11:36:08;9.57;;;3.65;;
80193;SDS011;69515;42.072;21.504;2024-02-21T11:41:40;8.63;;;3.95;;
80193;SDS011;69515;42.072;21.504;2024-02-21T11:44:14;8.48;;;4.15;;
80193;SDS011;69515;42.072;21.504;2024-02-21T11:46:40;6.90;;;3.53;;
80193;SDS011;69515;42.072;21.504;2024-02-21T11:49:07;9.18;;;3.67;;
80193;SDS011;69515;42.072;21.504;2024-02-21T11:51:34;7.07;;;4.00;;
80193;SDS011;69515;42.072;21.504;2024-02-21T11:54:00;7.68;;;3.45;;
80193;SDS011;69515;42.072;21.504;2024-02-21T11:56:26;7.78;;;3.70;;
80193;SDS011;69515;42.072;21.504;2024-02-21T11:58:52;9.80;;;3.88;;
80193;SDS011;69515;42.072;21.504;2024-02-21T12:01:20;6.75;;;3.60;;
80193;SDS011;69515;42.072;21.504;2024-02-21T12:03:46;7.38;;;3.72;;
80193;SDS011;69515;42.072;21.504;2024-02-21T12:06:15;11.25;;;4.03;;
80193;SDS011;69515;42.072;21.504;2024-02-21T12:08:44;10.75;;;3.67;;
80193;SDS011;69515;42.072;21.504;2024-02-21T12:11:18;7.40;;;3.15;;
80193;SDS011;69515;42.072;21.504;2024-02-21T12:13:46;8.60;;;4.22;;
80193;SDS011;69515;42.072;21.504;2024-02-21T12:16:14;9.60;;;3.58;;
80193;SDS011;69515;42.072;21.504;2024-02-21T12:18:53;9.30;;;3.78;;
80193;SDS011;69515;42.072;21.504;2024-02-21T12:21:40;10.30;;;3.75;;
80193;SDS011;69515;42.072;21.504;2024-02-21T12:24:17;7.30;;;3.53;;
80193;SDS011;69515;42.072;21.504;2024-02-21T12:26:46;9.63;;;4.43;;
80193;SDS011;69515;42.072;21.504;2024-02-21T12:29:32;8.60;;;4.35;;
80193;SDS011;69515;42.072;21.504;2024-02-21T12:32:01;7.20;;;3.47;;
80193;SDS011;69515;42.072;21.504;2024-02-21T12:34:29;8.05;;;4.05;;
80193;SDS011;69515;42.072;21.504;2024-02-21T12:36:57;7.55;;;3.40;;
80193;SDS011;69515;42.072;21.504;2024-02-21T12:39:24;8.15;;;3.30;;
80193;SDS011;69515;42.072;21.504;2024-02-21T12:41:53;7.20;;;3.78;;
80193;SDS011;69515;42.072;21.504;2024-02-21T12:44:22;7.68;;;4.15;;
80193;SDS011;69515;42.072;21.504;2024-02-21T12:46:49;6.95;;;3.95;;
80193;SDS011;69515;42.072;21.504;2024-02-21T12:49:19;6.50;;;3.60;;
80193;SDS011;69515;42.072;21.504;2024-02-21T12:51:45;7.85;;;4.28;;
80193;SDS011;69515;42.072;21.504;2024-02-21T12:54:14;6.50;;;3.58;;
80193;SDS011;69515;42.072;21.504;2024-02-21T12:56:40;6.20;;;3.53;;
80193;SDS011;69515;42.072;21.504;2024-02-21T12:59:06;5.97;;;3.05;;
80193;SDS011;69515;42.072;21.504;2024-02-21T13:01:36;6.03;;;3.10;;
80193;SDS011;69515;42.072;21.504;2024-02-21T13:04:02;7.25;;;3.40;;
80193;SDS011;69515;42.072;21.504;2024-02-21T13:06:29;6.82;;;3.33;;
80193;SDS011;69515;42.072;21.504;2024-02-21T13:08:55;6.97;;;3.40;;
80193;SDS011;69515;42.072;21.504;2024-02-21T13:11:21;5.05;;;2.53;;
80193;SDS011;69515;42.072;21.504;2024-02-21T13:13:47;4.85;;;3.10;;
80193;SDS011;69515;42.072;21.504;2024-02-21T13:16:14;8.40;;;3.58;;
80193;SDS011;69515;42.072;21.504;2024-02-21T13:18:40;7.28;;;3.00;;
80193;SDS011;69515;42.072;21.504;2024-02-21T13:21:08;6.57;;;3.00;;
80193;SDS011;69515;42.072;21.504;2024-02-21T13:23:34;10.65;;;3.80;;
80193;SDS011;69515;42.072;21.504;2024-02-21T13:26:00;9.13;;;2.80;;
80193;SDS011;69515;42.072;21.504;2024-02-21T13:28:27;19.90;;;3.47;;
80193;SDS011;69515;42.072;21.504;2024-02-21T13:30:53;11.80;;;3.17;;
80193;SDS011;69515;42.072;21.504;2024-02-21T13:33:19;9.55;;;3.65;;
80193;SDS011;69515;42.072;21.504;2024-02-21T13:35:46;6.30;;;3.30;;
80193;SDS011;69515;42.072;21.504;2024-02-21T13:38:12;8.75;;;3.05;;
80193;SDS011;69515;42.072;21.504;2024-02-21T13:40:39;6.25;;;2.92;;
80193;SDS011;69515;42.072;21.504;2024-02-21T13:43:08;7.72;;;2.85;;
80193;SDS011;69515;42.072;21.504;2024-02-21T13:45:34;7.63;;;3.15;;
80193;SDS011;69515;42.072;21.504;2024-02-21T13:48:01;8.18;;;2.90;;
80193;SDS011;69515;42.072;21.504;2024-02-21T13:50:30;8.02;;;3.78;;
80193;SDS011;69515;42.072;21.504;2024-02-21T13:52:56;8.02;;;2.97;;
80193;SDS011;69515;42.072;21.504;2024-02-21T13:55:23;7.63;;;3.38;;
80193;SDS011;69515;42.072;21.504;2024-02-21T13:57:52;7.07;;;2.90;;
80193;SDS011;69515;42.072;21.504;2024-02-21T14:00:18;7.43;;;3.28;;
80193;SDS011;69515;42.072;21.504;2024-02-21T14:02:45;6.47;;;3.33;;
80193;SDS011;69515;42.072;21.504;2024-02-21T14:05:12;9.18;;;3.47;;
80193;SDS011;69515;42.072;21.504;2024-02-21T14:07:39;8.45;;;3.10;;
80193;SDS011;69515;42.072;21.504;2024-02-21T14:10:06;8.48;;;3.95;;
80193;SDS011;69515;42.072;21.504;2024-02-21T14:12:32;7.05;;;3.60;;
80193;SDS011;69515;42.072;21.504;2024-02-21T14:14:58;7.57;;;4.05;;
80193;SDS011;69515;42.072;21.504;2024-02-21T14:17:25;10.00;;;3.53;;
80193;SDS011;69515;42.072;21.504;2024-02-21T14:19:51;9.27;;;3.58;;
80193;SDS011;69515;42.072;21.504;2024-02-21T14:22:17;8.48;;;3.97;;
80193;SDS011;69515;42.072;21.504;2024-02-21T14:24:45;11.88;;;3.60;;
80193;SDS011;69515;42.072;21.504;2024-02-21T14:27:11;9.20;;;3.45;;
80193;SDS011;69515;42.072;21.504;2024-02-21T14:29:38;7.53;;;3.85;;
80193;SDS011;69515;42.072;21.504;2024-02-21T14:32:05;8.05;;;3.67;;
80193;SDS011;69515;42.072;21.504;2024-02-21T14:34:33;9.13;;;4.28;;
80193;SDS011;69515;42.072;21.504;2024-02-21T14:36:59;6.50;;;3.13;;
80193;SDS011;69515;42.072;21.504;2024-02-21T14:39:26;7.07;;;3.50;;
80193;SDS011;69515;42.072;21.504;2024-02-21T14:41:53;8.35;;;3.78;;
80193;SDS011;69515;42.072;21.504;2024-02-21T14:44:19;7.43;;;3.65;;
80193;SDS011;69515;42.072;21.504;2024-02-21T14:46:45;8.85;;;4.28;;
80193;SDS011;69515;42.072;21.504;2024-02-21T14:49:11;8.25;;;3.95;;
80193;SDS011;69515;42.072;21.504;2024-02-21T14:51:37;8.68;;;4.00;;
80193;SDS011;69515;42.072;21.504;2024-02-21T14:54:04;7.00;;;3.50;;
80193;SDS011;69515;42.072;21.504;2024-02-21T14:56:30;7.00;;;3.17;;
80193;SDS011;69515;42.072;21.504;2024-02-21T14:58:56;9.63;;;3.55;;
80193;SDS011;69515;42.072;21.504;2024-02-21T15:01:23;6.30;;;3.22;;
80193;SDS011;69515;42.072;21.504;2024-02-21T15:03:49;6.53;;;3.60;;
80193;SDS011;69515;42.072;21.504;2024-02-21T15:06:16;7.30;;;3.65;;
80193;SDS011;69515;42.072;21.504;2024-02-21T15:08:42;7.22;;;3.45;;
80193;SDS011;69515;42.072;21.504;2024-02-21T15:11:09;5.28;;;2.90;;
80193;SDS011;69515;42.072;21.504;2024-02-21T15:13:35;7.15;;;3.45;;
80193;SDS011;69515;42.072;21.504;2024-02-21T15:16:02;6.35;;;3.40;;
80193;SDS011;69515;42.072;21.504;2024-02-21T15:18:30;7.20;;;3.30;;
80193;SDS011;69515;42.072;21.504;2024-02-21T15:20:58;6.10;;;2.95;;
80193;SDS011;69515;42.072;21.504;2024-02-21T15:23:26;8.02;;;4.07;;
80193;SDS011;69515;42.072;21.504;2024-02-21T15:25:52;6.40;;;3.88;;
80193;SDS011;69515;42.072;21.504;2024-02-21T15:28:18;8.27;;;4.57;;
80193;SDS011;69515;42.072;21.504;2024-02-21T15:30:45;6.22;;;3.55;;
80193;SDS011;69515;42.072;21.504;2024-02-21T15:33:11;9.20;;;3.80;;
80193;SDS011;69515;42.072;21.504;2024-02-21T15:35:37;10.50;;;4.03;;
80193;SDS011;69515;42.072;21.504;2024-02-21T15:38:03;40.10;;;27.27;;
80193;SDS011;69515;42.072;21.504;2024-02-21T15:40:30;20.45;;;8.90;;
80193;SDS011;69515;42.072;21.504;2024-02-21T15:43:00;9.57;;;4.93;;
80193;SDS011;69515;42.072;21.504;2024-02-21T15:45:27;8.50;;;5.63;;
80193;SDS011;69515;42.072;21.504;2024-02-21T15:47:54;8.32;;;4.97;;
80193;SDS011;69515;42.072;21.504;2024-02-21T15:50:20;8.20;;;4.55;;
80193;SDS011;69515;42.072;21.504;2024-02-21T15:52:46;8.02;;;4.10;;